sensor_id;sensor_type;location;lat;lon;timestamp;P1;durP1;ratioP1;P2;durP2;ratioP2
69979;SDS011;57318;56.232;43.944;2024-01-11T00:01:03;7.23;;;2.70;;
69979;SDS011;57318;56.232;43.944;2024-01-11T00:03:29;9.68;;;3.00;;
69979;SDS011;57318;56.232;43.944;2024-01-11T00:05:54;5.68;;;2.80;;
69979;SDS011;57318;56.232;43.944;2024-01-11T00:08:20;2.95;;;1.65;;
69979;SDS011;57318;56.232;43.944;2024-01-11T00:10:46;6.18;;;2.72;;
69979;SDS011;57318;56.232;43.944;2024-01-11T00:13:12;4.55;;;2.13;;
69979;SDS011;57318;56.232;43.944;2024-01-11T00:15:37;3.95;;;2.30;;
69979;SDS011;57318;56.232;43.944;2024-01-11T00:18:03;4.15;;;2.03;;
69979;SDS011;57318;56.232;43.944;2024-01-11T00:20:29;3.88;;;1.77;;
69979;SDS011;57318;56.232;43.944;2024-01-11T00:22:55;2.08;;;1.35;;
69979;SDS011;57318;56.232;43.944;2024-01-11T00:25:20;2.90;;;1.80;;
69979;SDS011;57318;56.232;43.944;2024-01-11T00:27:46;5.03;;;2.17;;
69979;SDS011;57318;56.232;43.944;2024-01-11T00:30:12;2.67;;;1.73;;
69979;SDS011;57318;56.232;43.944;2024-01-11T00:32:37;4.25;;;2.08;;
69979;SDS011;57318;56.232;43.944;2024-01-11T00:35:03;5.88;;;2.63;;
69979;SDS011;57318;56.232;43.944;2024-01-11T00:37:29;3.80;;;1.90;;
69979;SDS011;57318;56.232;43.944;2024-01-11T00:39:55;3.95;;;2.40;;
69979;SDS011;57318;56.232;43.944;2024-01-11T00:42:21;6.05;;;2.17;;
69979;SDS011;57318;56.232;43.944;2024-01-11T00:44:46;5.32;;;2.40;;
69979;SDS011;57318;56.232;43.944;2024-01-11T00:47:12;5.03;;;2.70;;
69979;SDS011;57318;56.232;43.944;2024-01-11T00:49:38;4.97;;;2.20;;
69979;SDS011;57318;56.232;43.944;2024-01-11T00:52:04;6.05;;;2.30;;
69979;SDS011;57318;56.232;43.944;2024-01-11T00:54:30;2.77;;;1.73;;
69979;SDS011;57318;56.232;43.944;2024-01-11T00:56:56;3.45;;;1.95;;
69979;SDS011;57318;56.232;43.944;2024-01-11T00:59:22;7.05;;;2.40;;
69979;SDS011;57318;56.232;43.944;2024-01-11T01:01:48;4.40;;;1.90;;
69979;SDS011;57318;56.232;43.944;2024-01-11T01:04:14;2.33;;;1.57;;
69979;SDS011;57318;56.232;43.944;2024-01-11T01:06:40;3.92;;;2.10;;
69979;SDS011;57318;56.232;43.944;2024-01-11T01:09:06;4.10;;;1.90;;
69979;SDS011;57318;56.232;43.944;2024-01-11T01:11:32;5.05;;;2.30;;
69979;SDS011;57318;56.232;43.944;2024-01-11T01:13:58;4.15;;;2.30;;
69979;SDS011;57318;56.232;43.944;2024-01-11T01:16:23;6.80;;;2.50;;
69979;SDS011;57318;56.232;43.944;2024-01-11T01:18:49;3.42;;;1.58;;
69979;SDS011;57318;56.232;43.944;2024-01-11T01:21:15;2.65;;;1.27;;
69979;SDS011;57318;56.232;43.944;2024-01-11T01:23:40;3.92;;;2.28;;
69979;SDS011;57318;56.232;43.944;2024-01-11T01:26:06;5.45;;;2.20;;
69979;SDS011;57318;56.232;43.944;2024-01-11T01:28:32;3.72;;;2.25;;
69979;SDS011;57318;56.232;43.944;2024-01-11T01:30:58;5.35;;;2.70;;
69979;SDS011;57318;56.232;43.944;2024-01-11T01:33:24;3.60;;;2.05;;
69979;SDS011;57318;56.232;43.944;2024-01-11T01:35:49;5.28;;;2.25;;
69979;SDS011;57318;56.232;43.944;2024-01-11T01:38:15;4.30;;;1.98;;
69979;SDS011;57318;56.232;43.944;2024-01-11T01:40:42;3.60;;;1.63;;
69979;SDS011;57318;56.232;43.944;2024-01-11T01:43:09;3.70;;;1.93;;
69979;SDS011;57318;56.232;43.944;2024-01-11T01:45:35;3.87;;;1.70;;
69979;SDS011;57318;56.232;43.944;2024-01-11T01:48:01;3.63;;;1.90;;
69979;SDS011;57318;56.232;43.944;2024-01-11T01:50:29;3.70;;;1.40;;
69979;SDS011;57318;56.232;43.944;2024-01-11T01:52:55;3.77;;;1.73;;
69979;SDS011;57318;56.232;43.944;2024-01-11T01:55:22;4.07;;;1.70;;
69979;SDS011;57318;56.232;43.944;2024-01-11T01:57:48;4.93;;;2.17;;
69979;SDS011;57318;56.232;43.944;2024-01-11T02:00:16;3.10;;;1.57;;
69979;SDS011;57318;56.232;43.944;2024-01-11T02:02:43;3.83;;;2.10;;
69979;SDS011;57318;56.232;43.944;2024-01-11T02:05:10;3.53;;;1.90;;
69979;SDS011;57318;56.232;43.944;2024-01-11T02:07:38;4.67;;;2.07;;
69979;SDS011;57318;56.232;43.944;2024-01-11T02:10:07;3.67;;;1.60;;
69979;SDS011;57318;56.232;43.944;2024-01-11T02:12:37;4.53;;;1.80;;
69979;SDS011;57318;56.232;43.944;2024-01-11T02:15:03;2.93;;;1.80;;
69979;SDS011;57318;56.232;43.944;2024-01-11T02:17:35;2.57;;;1.63;;
69979;SDS011;57318;56.232;43.944;2024-01-11T02:20:00;2.58;;;1.35;;
69979;SDS011;57318;56.232;43.944;2024-01-11T02:22:34;4.87;;;1.70;;
69979;SDS011;57318;56.232;43.944;2024-01-11T02:25:01;3.13;;;1.27;;
69979;SDS011;57318;56.232;43.944;2024-01-11T02:29:53;4.60;;;1.80;;
69979;SDS011;57318;56.232;43.944;2024-01-11T02:32:18;4.13;;;1.80;;
69979;SDS011;57318;56.232;43.944;2024-01-11T02:34:45;4.90;;;2.03;;
69979;SDS011;57318;56.232;43.944;2024-01-11T02:37:11;2.27;;;1.37;;
69979;SDS011;57318;56.232;43.944;2024-01-11T02:39:38;6.03;;;1.97;;
69979;SDS011;57318;56.232;43.944;2024-01-11T02:42:04;4.37;;;1.87;;
69979;SDS011;57318;56.232;43.944;2024-01-11T02:44:30;6.03;;;2.28;;
69979;SDS011;57318;56.232;43.944;2024-01-11T02:46:56;4.68;;;1.83;;
69979;SDS011;57318;56.232;43.944;2024-01-11T02:49:21;7.30;;;1.60;;
69979;SDS011;57318;56.232;43.944;2024-01-11T02:51:47;8.63;;;2.15;;
69979;SDS011;57318;56.232;43.944;2024-01-11T02:54:13;4.25;;;1.80;;
69979;SDS011;57318;56.232;43.944;2024-01-11T02:56:40;2.03;;;1.63;;
69979;SDS011;57318;56.232;43.944;2024-01-11T02:59:05;4.53;;;1.65;;
69979;SDS011;57318;56.232;43.944;2024-01-11T03:01:31;4.40;;;2.40;;
69979;SDS011;57318;56.232;43.944;2024-01-11T03:03:57;7.23;;;2.53;;
69979;SDS011;57318;56.232;43.944;2024-01-11T03:06:23;5.50;;;2.08;;
69979;SDS011;57318;56.232;43.944;2024-01-11T03:08:49;2.97;;;1.63;;
69979;SDS011;57318;56.232;43.944;2024-01-11T03:11:15;3.97;;;1.88;;
69979;SDS011;57318;56.232;43.944;2024-01-11T03:13:42;3.47;;;1.80;;
69979;SDS011;57318;56.232;43.944;2024-01-11T03:16:08;3.37;;;1.53;;
69979;SDS011;57318;56.232;43.944;2024-01-11T03:18:34;1.83;;;1.17;;
69979;SDS011;57318;56.232;43.944;2024-01-11T03:21:00;4.07;;;1.70;;
69979;SDS011;57318;56.232;43.944;2024-01-11T03:23:26;7.15;;;2.10;;
69979;SDS011;57318;56.232;43.944;2024-01-11T03:25:51;6.95;;;1.63;;
69979;SDS011;57318;56.232;43.944;2024-01-11T03:28:17;3.50;;;1.50;;
69979;SDS011;57318;56.232;43.944;2024-01-11T03:30:43;8.48;;;2.10;;
69979;SDS011;57318;56.232;43.944;2024-01-11T03:33:08;13.38;;;2.30;;
69979;SDS011;57318;56.232;43.944;2024-01-11T03:35:34;4.60;;;1.40;;
69979;SDS011;57318;56.232;43.944;2024-01-11T03:38:00;2.78;;;1.58;;
69979;SDS011;57318;56.232;43.944;2024-01-11T03:40:26;2.75;;;1.27;;
69979;SDS011;57318;56.232;43.944;2024-01-11T03:42:52;13.85;;;3.03;;
69979;SDS011;57318;56.232;43.944;2024-01-11T03:45:18;4.53;;;1.90;;
69979;SDS011;57318;56.232;43.944;2024-01-11T03:47:47;1.47;;;0.90;;
69979;SDS011;57318;56.232;43.944;2024-01-11T03:50:12;3.80;;;1.55;;
69979;SDS011;57318;56.232;43.944;2024-01-11T03:52:39;4.20;;;1.75;;
69979;SDS011;57318;56.232;43.944;2024-01-11T03:55:05;3.53;;;1.60;;
69979;SDS011;57318;56.232;43.944;2024-01-11T03:59:56;5.90;;;1.60;;
69979;SDS011;57318;56.232;43.944;2024-01-11T04:02:24;24.53;;;3.10;;
69979;SDS011;57318;56.232;43.944;2024-01-11T04:04:50;4.03;;;1.53;;
69979;SDS011;57318;56.232;43.944;2024-01-11T04:07:16;10.77;;;2.78;;
69979;SDS011;57318;56.232;43.944;2024-01-11T04:09:43;2.75;;;1.10;;
69979;SDS011;57318;56.232;43.944;2024-01-11T04:12:09;13.30;;;2.50;;
69979;SDS011;57318;56.232;43.944;2024-01-11T04:14:38;6.32;;;1.83;;
69979;SDS011;57318;56.232;43.944;2024-01-11T04:17:08;7.37;;;2.30;;
69979;SDS011;57318;56.232;43.944;2024-01-11T04:19:33;7.50;;;1.80;;
69979;SDS011;57318;56.232;43.944;2024-01-11T04:21:59;11.45;;;3.33;;
69979;SDS011;57318;56.232;43.944;2024-01-11T04:24:25;5.97;;;2.05;;
69979;SDS011;57318;56.232;43.944;2024-01-11T04:26:52;5.10;;;1.87;;
69979;SDS011;57318;56.232;43.944;2024-01-11T04:29:17;5.15;;;1.70;;
69979;SDS011;57318;56.232;43.944;2024-01-11T04:31:44;4.10;;;1.60;;
69979;SDS011;57318;56.232;43.944;2024-01-11T04:34:10;6.70;;;2.60;;
69979;SDS011;57318;56.232;43.944;2024-01-11T04:36:39;3.83;;;1.80;;
69979;SDS011;57318;56.232;43.944;2024-01-11T04:39:05;4.97;;;1.93;;
69979;SDS011;57318;56.232;43.944;2024-01-11T04:41:33;3.57;;;1.20;;
69979;SDS011;57318;56.232;43.944;2024-01-11T04:44:02;6.60;;;2.33;;
69979;SDS011;57318;56.232;43.944;2024-01-11T04:46:28;3.08;;;1.67;;
69979;SDS011;57318;56.232;43.944;2024-01-11T04:48:54;3.97;;;1.30;;
69979;SDS011;57318;56.232;43.944;2024-01-11T04:51:19;5.60;;;1.85;;
69979;SDS011;57318;56.232;43.944;2024-01-11T04:53:45;7.45;;;2.13;;
69979;SDS011;57318;56.232;43.944;2024-01-11T04:58:42;2.57;;;1.37;;
69979;SDS011;57318;56.232;43.944;2024-01-11T05:01:15;5.80;;;2.00;;
69979;SDS011;57318;56.232;43.944;2024-01-11T05:03:42;3.60;;;1.77;;
69979;SDS011;57318;56.232;43.944;2024-01-11T05:06:14;6.27;;;2.27;;
69979;SDS011;57318;56.232;43.944;2024-01-11T05:08:44;6.67;;;1.73;;
69979;SDS011;57318;56.232;43.944;2024-01-11T05:11:23;5.10;;;1.47;;
69979;SDS011;57318;56.232;43.944;2024-01-11T05:13:50;7.33;;;1.83;;
69979;SDS011;57318;56.232;43.944;2024-01-11T05:16:20;2.50;;;1.40;;
69979;SDS011;57318;56.232;43.944;2024-01-11T05:18:48;4.00;;;1.93;;
69979;SDS011;57318;56.232;43.944;2024-01-11T05:21:14;3.53;;;1.42;;
69979;SDS011;57318;56.232;43.944;2024-01-11T05:23:43;3.40;;;1.63;;
69979;SDS011;57318;56.232;43.944;2024-01-11T05:26:09;6.50;;;2.10;;
69979;SDS011;57318;56.232;43.944;2024-01-11T05:28:35;3.97;;;1.77;;
69979;SDS011;57318;56.232;43.944;2024-01-11T05:31:05;11.67;;;2.23;;
69979;SDS011;57318;56.232;43.944;2024-01-11T05:33:32;5.53;;;1.90;;
69979;SDS011;57318;56.232;43.944;2024-01-11T05:38:24;4.93;;;2.20;;
69979;SDS011;57318;56.232;43.944;2024-01-11T05:40:49;2.63;;;1.38;;
69979;SDS011;57318;56.232;43.944;2024-01-11T05:43:15;3.95;;;2.13;;
69979;SDS011;57318;56.232;43.944;2024-01-11T05:45:41;5.78;;;1.70;;
69979;SDS011;57318;56.232;43.944;2024-01-11T05:48:06;3.30;;;1.42;;
69979;SDS011;57318;56.232;43.944;2024-01-11T05:50:32;6.60;;;2.40;;
69979;SDS011;57318;56.232;43.944;2024-01-11T05:52:58;6.82;;;2.47;;
69979;SDS011;57318;56.232;43.944;2024-01-11T05:55:24;3.42;;;1.90;;
69979;SDS011;57318;56.232;43.944;2024-01-11T05:57:49;3.72;;;1.70;;
69979;SDS011;57318;56.232;43.944;2024-01-11T06:00:15;6.90;;;2.20;;
69979;SDS011;57318;56.232;43.944;2024-01-11T06:05:09;3.17;;;2.07;;
69979;SDS011;57318;56.232;43.944;2024-01-11T06:07:37;5.40;;;3.23;;
69979;SDS011;57318;56.232;43.944;2024-01-11T06:10:03;2.85;;;1.60;;
69979;SDS011;57318;56.232;43.944;2024-01-11T06:12:31;4.70;;;1.70;;
69979;SDS011;57318;56.232;43.944;2024-01-11T06:14:58;4.15;;;1.88;;
69979;SDS011;57318;56.232;43.944;2024-01-11T06:17:24;3.87;;;1.83;;
69979;SDS011;57318;56.232;43.944;2024-01-11T06:19:50;3.90;;;2.13;;
69979;SDS011;57318;56.232;43.944;2024-01-11T06:22:15;8.23;;;3.35;;
69979;SDS011;57318;56.232;43.944;2024-01-11T06:24:41;7.13;;;2.38;;
69979;SDS011;57318;56.232;43.944;2024-01-11T06:27:07;4.20;;;2.45;;
69979;SDS011;57318;56.232;43.944;2024-01-11T06:29:32;4.38;;;2.45;;
69979;SDS011;57318;56.232;43.944;2024-01-11T06:31:58;6.13;;;2.40;;
69979;SDS011;57318;56.232;43.944;2024-01-11T06:34:24;5.63;;;2.28;;
69979;SDS011;57318;56.232;43.944;2024-01-11T06:36:50;5.13;;;2.00;;
69979;SDS011;57318;56.232;43.944;2024-01-11T06:39:15;8.15;;;2.63;;
69979;SDS011;57318;56.232;43.944;2024-01-11T06:41:42;6.88;;;2.53;;
69979;SDS011;57318;56.232;43.944;2024-01-11T06:44:07;9.20;;;2.70;;
69979;SDS011;57318;56.232;43.944;2024-01-11T06:46:33;4.93;;;2.70;;
69979;SDS011;57318;56.232;43.944;2024-01-11T06:48:58;7.65;;;3.03;;
69979;SDS011;57318;56.232;43.944;2024-01-11T06:51:24;6.18;;;2.97;;
69979;SDS011;57318;56.232;43.944;2024-01-11T06:53:50;4.72;;;2.50;;
69979;SDS011;57318;56.232;43.944;2024-01-11T06:58:43;6.63;;;2.85;;
69979;SDS011;57318;56.232;43.944;2024-01-11T07:01:11;4.33;;;2.10;;
69979;SDS011;57318;56.232;43.944;2024-01-11T07:03:37;8.05;;;2.60;;
69979;SDS011;57318;56.232;43.944;2024-01-11T07:06:03;6.17;;;2.80;;
69979;SDS011;57318;56.232;43.944;2024-01-11T07:08:29;6.07;;;2.50;;
69979;SDS011;57318;56.232;43.944;2024-01-11T07:10:55;5.70;;;2.13;;
69979;SDS011;57318;56.232;43.944;2024-01-11T07:15:47;6.47;;;3.40;;
69979;SDS011;57318;56.232;43.944;2024-01-11T07:20:39;7.47;;;3.10;;
69979;SDS011;57318;56.232;43.944;2024-01-11T07:23:05;9.15;;;4.15;;
69979;SDS011;57318;56.232;43.944;2024-01-11T07:25:32;7.47;;;3.78;;
69979;SDS011;57318;56.232;43.944;2024-01-11T07:28:00;7.10;;;4.03;;
69979;SDS011;57318;56.232;43.944;2024-01-11T07:32:51;7.43;;;3.63;;
69979;SDS011;57318;56.232;43.944;2024-01-11T07:35:17;6.13;;;3.33;;
69979;SDS011;57318;56.232;43.944;2024-01-11T07:37:43;8.43;;;3.47;;
69979;SDS011;57318;56.232;43.944;2024-01-11T07:40:08;6.90;;;3.28;;
69979;SDS011;57318;56.232;43.944;2024-01-11T07:42:37;8.53;;;4.30;;
69979;SDS011;57318;56.232;43.944;2024-01-11T07:45:04;10.40;;;4.20;;
69979;SDS011;57318;56.232;43.944;2024-01-11T07:47:31;5.27;;;2.77;;
69979;SDS011;57318;56.232;43.944;2024-01-11T07:49:57;9.18;;;3.90;;
69979;SDS011;57318;56.232;43.944;2024-01-11T07:52:22;8.90;;;3.95;;
69979;SDS011;57318;56.232;43.944;2024-01-11T07:54:48;7.28;;;3.38;;
69979;SDS011;57318;56.232;43.944;2024-01-11T07:57:14;10.75;;;3.95;;
69979;SDS011;57318;56.232;43.944;2024-01-11T07:59:39;7.32;;;3.60;;
69979;SDS011;57318;56.232;43.944;2024-01-11T08:02:05;7.40;;;2.85;;
69979;SDS011;57318;56.232;43.944;2024-01-11T08:04:32;8.90;;;3.93;;
69979;SDS011;57318;56.232;43.944;2024-01-11T08:06:58;6.00;;;3.13;;
69979;SDS011;57318;56.232;43.944;2024-01-11T08:09:27;8.60;;;3.37;;
69979;SDS011;57318;56.232;43.944;2024-01-11T08:14:22;10.73;;;3.20;;
69979;SDS011;57318;56.232;43.944;2024-01-11T08:16:49;7.73;;;3.13;;
69979;SDS011;57318;56.232;43.944;2024-01-11T08:19:15;8.70;;;3.58;;
69979;SDS011;57318;56.232;43.944;2024-01-11T08:21:42;6.23;;;3.00;;
69979;SDS011;57318;56.232;43.944;2024-01-11T08:24:08;11.52;;;4.53;;
69979;SDS011;57318;56.232;43.944;2024-01-11T08:26:33;5.70;;;2.58;;
69979;SDS011;57318;56.232;43.944;2024-01-11T08:29:00;8.20;;;3.72;;
69979;SDS011;57318;56.232;43.944;2024-01-11T08:31:26;6.50;;;3.07;;
69979;SDS011;57318;56.232;43.944;2024-01-11T08:33:52;9.95;;;3.35;;
69979;SDS011;57318;56.232;43.944;2024-01-11T08:36:18;6.80;;;3.73;;
69979;SDS011;57318;56.232;43.944;2024-01-11T08:38:44;8.55;;;3.63;;
69979;SDS011;57318;56.232;43.944;2024-01-11T08:41:09;4.32;;;1.95;;
69979;SDS011;57318;56.232;43.944;2024-01-11T08:43:35;13.80;;;4.65;;
69979;SDS011;57318;56.232;43.944;2024-01-11T08:46:01;4.65;;;2.20;;
69979;SDS011;57318;56.232;43.944;2024-01-11T08:48:27;7.80;;;3.80;;
69979;SDS011;57318;56.232;43.944;2024-01-11T08:53:19;6.90;;;2.93;;
69979;SDS011;57318;56.232;43.944;2024-01-11T08:55:45;3.63;;;2.13;;
69979;SDS011;57318;56.232;43.944;2024-01-11T08:58:10;4.43;;;2.53;;
69979;SDS011;57318;56.232;43.944;2024-01-11T09:03:03;8.13;;;4.03;;
69979;SDS011;57318;56.232;43.944;2024-01-11T09:05:29;7.93;;;3.30;;
69979;SDS011;57318;56.232;43.944;2024-01-11T09:07:54;9.20;;;3.85;;
69979;SDS011;57318;56.232;43.944;2024-01-11T09:10:20;4.18;;;2.25;;
69979;SDS011;57318;56.232;43.944;2024-01-11T09:12:46;8.55;;;3.50;;
69979;SDS011;57318;56.232;43.944;2024-01-11T09:15:12;7.57;;;3.00;;
69979;SDS011;57318;56.232;43.944;2024-01-11T09:17:38;7.63;;;3.90;;
69979;SDS011;57318;56.232;43.944;2024-01-11T09:20:04;10.32;;;4.43;;
69979;SDS011;57318;56.232;43.944;2024-01-11T09:24:55;6.67;;;2.60;;
69979;SDS011;57318;56.232;43.944;2024-01-11T09:27:21;6.80;;;2.60;;
69979;SDS011;57318;56.232;43.944;2024-01-11T09:29:47;7.65;;;3.30;;
69979;SDS011;57318;56.232;43.944;2024-01-11T09:32:13;6.55;;;2.83;;
69979;SDS011;57318;56.232;43.944;2024-01-11T09:34:39;10.73;;;3.90;;
69979;SDS011;57318;56.232;43.944;2024-01-11T09:37:05;7.40;;;3.63;;
69979;SDS011;57318;56.232;43.944;2024-01-11T09:39:30;8.88;;;3.55;;
69979;SDS011;57318;56.232;43.944;2024-01-11T09:41:58;6.63;;;2.78;;
69979;SDS011;57318;56.232;43.944;2024-01-11T09:44:29;10.23;;;2.70;;
69979;SDS011;57318;56.232;43.944;2024-01-11T09:46:55;9.27;;;3.55;;
69979;SDS011;57318;56.232;43.944;2024-01-11T09:49:24;7.90;;;3.53;;
69979;SDS011;57318;56.232;43.944;2024-01-11T09:51:50;7.57;;;3.55;;
69979;SDS011;57318;56.232;43.944;2024-01-11T09:54:16;11.73;;;5.20;;
69979;SDS011;57318;56.232;43.944;2024-01-11T09:56:46;10.73;;;4.57;;
69979;SDS011;57318;56.232;43.944;2024-01-11T09:59:14;7.53;;;4.03;;
69979;SDS011;57318;56.232;43.944;2024-01-11T10:01:43;9.60;;;4.00;;
69979;SDS011;57318;56.232;43.944;2024-01-11T10:04:09;6.60;;;3.20;;
69979;SDS011;57318;56.232;43.944;2024-01-11T10:06:38;8.43;;;3.00;;
69979;SDS011;57318;56.232;43.944;2024-01-11T10:09:04;9.53;;;3.63;;
69979;SDS011;57318;56.232;43.944;2024-01-11T10:13:56;7.80;;;3.23;;
69979;SDS011;57318;56.232;43.944;2024-01-11T10:16:24;10.20;;;4.53;;
69979;SDS011;57318;56.232;43.944;2024-01-11T10:18:49;12.57;;;2.97;;
69979;SDS011;57318;56.232;43.944;2024-01-11T10:21:19;11.60;;;3.80;;
69979;SDS011;57318;56.232;43.944;2024-01-11T10:23:45;6.82;;;2.80;;
69979;SDS011;57318;56.232;43.944;2024-01-11T10:26:10;7.43;;;3.10;;
69979;SDS011;57318;56.232;43.944;2024-01-11T10:28:39;6.10;;;3.20;;
69979;SDS011;57318;56.232;43.944;2024-01-11T10:31:05;5.78;;;2.60;;
69979;SDS011;57318;56.232;43.944;2024-01-11T10:33:34;6.75;;;3.13;;
69979;SDS011;57318;56.232;43.944;2024-01-11T10:36:01;9.60;;;4.33;;
69979;SDS011;57318;56.232;43.944;2024-01-11T10:38:27;6.82;;;3.40;;
69979;SDS011;57318;56.232;43.944;2024-01-11T10:40:55;10.45;;;4.13;;
69979;SDS011;57318;56.232;43.944;2024-01-11T10:43:28;9.13;;;2.90;;
69979;SDS011;57318;56.232;43.944;2024-01-11T10:46:02;8.60;;;2.85;;
69979;SDS011;57318;56.232;43.944;2024-01-11T10:48:43;8.40;;;3.80;;
69979;SDS011;57318;56.232;43.944;2024-01-11T10:51:18;10.00;;;3.78;;
69979;SDS011;57318;56.232;43.944;2024-01-11T10:53:50;6.60;;;3.63;;
69979;SDS011;57318;56.232;43.944;2024-01-11T10:56:19;6.95;;;3.83;;
69979;SDS011;57318;56.232;43.944;2024-01-11T10:58:46;7.72;;;3.75;;
69979;SDS011;57318;56.232;43.944;2024-01-11T11:01:16;13.02;;;5.00;;
69979;SDS011;57318;56.232;43.944;2024-01-11T11:03:44;11.75;;;3.03;;
69979;SDS011;57318;56.232;43.944;2024-01-11T11:06:11;7.72;;;4.13;;
69979;SDS011;57318;56.232;43.944;2024-01-11T11:08:37;9.45;;;3.40;;
69979;SDS011;57318;56.232;43.944;2024-01-11T11:11:04;10.32;;;4.07;;
69979;SDS011;57318;56.232;43.944;2024-01-11T11:13:31;9.55;;;3.95;;
69979;SDS011;57318;56.232;43.944;2024-01-11T11:16:00;7.20;;;3.50;;
69979;SDS011;57318;56.232;43.944;2024-01-11T11:18:27;10.80;;;4.93;;
69979;SDS011;57318;56.232;43.944;2024-01-11T11:20:53;7.20;;;3.30;;
69979;SDS011;57318;56.232;43.944;2024-01-11T11:23:19;8.60;;;3.40;;
69979;SDS011;57318;56.232;43.944;2024-01-11T11:25:45;12.70;;;3.90;;
69979;SDS011;57318;56.232;43.944;2024-01-11T11:28:13;7.63;;;3.92;;
69979;SDS011;57318;56.232;43.944;2024-01-11T11:30:41;2.75;;;2.15;;
69979;SDS011;57318;56.232;43.944;2024-01-11T11:33:16;8.82;;;4.07;;
69979;SDS011;57318;56.232;43.944;2024-01-11T11:35:48;7.20;;;3.35;;
69979;SDS011;57318;56.232;43.944;2024-01-11T11:38:17;9.30;;;4.55;;
69979;SDS011;57318;56.232;43.944;2024-01-11T11:40:48;9.55;;;4.63;;
69979;SDS011;57318;56.232;43.944;2024-01-11T11:43:16;10.20;;;4.43;;
69979;SDS011;57318;56.232;43.944;2024-01-11T11:45:43;8.68;;;3.80;;
69979;SDS011;57318;56.232;43.944;2024-01-11T11:51:07;12.75;;;4.10;;
69979;SDS011;57318;56.232;43.944;2024-01-11T11:53:33;7.40;;;3.47;;
69979;SDS011;57318;56.232;43.944;2024-01-11T11:58:27;8.13;;;4.00;;
69979;SDS011;57318;56.232;43.944;2024-01-11T12:00:54;11.30;;;3.97;;
69979;SDS011;57318;56.232;43.944;2024-01-11T12:03:23;11.20;;;4.43;;
69979;SDS011;57318;56.232;43.944;2024-01-11T12:05:54;15.73;;;5.50;;
69979;SDS011;57318;56.232;43.944;2024-01-11T12:08:20;13.57;;;5.15;;
69979;SDS011;57318;56.232;43.944;2024-01-11T12:13:12;10.05;;;3.45;;
69979;SDS011;57318;56.232;43.944;2024-01-11T12:15:38;17.27;;;4.70;;
69979;SDS011;57318;56.232;43.944;2024-01-11T12:18:04;7.50;;;3.25;;
69979;SDS011;57318;56.232;43.944;2024-01-11T12:20:34;8.88;;;3.70;;
69979;SDS011;57318;56.232;43.944;2024-01-11T12:23:00;6.75;;;3.50;;
69979;SDS011;57318;56.232;43.944;2024-01-11T12:25:30;10.52;;;4.93;;
69979;SDS011;57318;56.232;43.944;2024-01-11T12:30:22;9.23;;;4.07;;
69979;SDS011;57318;56.232;43.944;2024-01-11T12:32:49;12.82;;;4.40;;
69979;SDS011;57318;56.232;43.944;2024-01-11T12:35:16;9.25;;;3.25;;
69979;SDS011;57318;56.232;43.944;2024-01-11T12:38:01;7.38;;;3.33;;
69979;SDS011;57318;56.232;43.944;2024-01-11T12:40:35;9.93;;;3.47;;
69979;SDS011;57318;56.232;43.944;2024-01-11T12:43:03;10.63;;;5.03;;
69979;SDS011;57318;56.232;43.944;2024-01-11T12:45:35;6.07;;;3.05;;
69979;SDS011;57318;56.232;43.944;2024-01-11T12:48:01;8.85;;;3.70;;
69979;SDS011;57318;56.232;43.944;2024-01-11T12:50:29;9.18;;;3.45;;
69979;SDS011;57318;56.232;43.944;2024-01-11T12:53:14;2.42;;;1.92;;
69979;SDS011;57318;56.232;43.944;2024-01-11T12:55:47;11.75;;;4.03;;
69979;SDS011;57318;56.232;43.944;2024-01-11T13:00:44;6.63;;;3.15;;
69979;SDS011;57318;56.232;43.944;2024-01-11T13:03:10;8.50;;;4.35;;
69979;SDS011;57318;56.232;43.944;2024-01-11T13:05:35;9.10;;;3.95;;
69979;SDS011;57318;56.232;43.944;2024-01-11T13:08:02;9.38;;;3.65;;
69979;SDS011;57318;56.232;43.944;2024-01-11T13:10:29;6.85;;;3.00;;
69979;SDS011;57318;56.232;43.944;2024-01-11T13:12:57;4.88;;;2.28;;
69979;SDS011;57318;56.232;43.944;2024-01-11T13:15:23;5.32;;;2.78;;
69979;SDS011;57318;56.232;43.944;2024-01-11T13:17:49;5.75;;;3.40;;
69979;SDS011;57318;56.232;43.944;2024-01-11T13:20:15;4.45;;;2.30;;
69979;SDS011;57318;56.232;43.944;2024-01-11T13:22:41;3.88;;;2.70;;
69979;SDS011;57318;56.232;43.944;2024-01-11T13:25:07;7.97;;;2.97;;
69979;SDS011;57318;56.232;43.944;2024-01-11T13:27:33;5.70;;;3.30;;
69979;SDS011;57318;56.232;43.944;2024-01-11T13:29:58;7.90;;;2.78;;
69979;SDS011;57318;56.232;43.944;2024-01-11T13:32:24;3.10;;;2.40;;
69979;SDS011;57318;56.232;43.944;2024-01-11T13:34:50;4.90;;;3.03;;
69979;SDS011;57318;56.232;43.944;2024-01-11T13:37:18;3.83;;;2.00;;
69979;SDS011;57318;56.232;43.944;2024-01-11T13:39:45;5.30;;;2.60;;
69979;SDS011;57318;56.232;43.944;2024-01-11T13:42:11;6.28;;;2.15;;
69979;SDS011;57318;56.232;43.944;2024-01-11T13:44:38;4.57;;;1.90;;
69979;SDS011;57318;56.232;43.944;2024-01-11T13:47:04;13.82;;;3.03;;
69979;SDS011;57318;56.232;43.944;2024-01-11T13:49:30;4.90;;;2.28;;
69979;SDS011;57318;56.232;43.944;2024-01-11T13:51:56;4.82;;;2.20;;
69979;SDS011;57318;56.232;43.944;2024-01-11T13:54:22;7.25;;;2.45;;
69979;SDS011;57318;56.232;43.944;2024-01-11T13:56:48;8.15;;;2.70;;
69979;SDS011;57318;56.232;43.944;2024-01-11T13:59:15;6.25;;;2.97;;
69979;SDS011;57318;56.232;43.944;2024-01-11T14:01:40;13.30;;;5.05;;
69979;SDS011;57318;56.232;43.944;2024-01-11T14:04:09;5.72;;;2.40;;
69979;SDS011;57318;56.232;43.944;2024-01-11T14:06:37;6.63;;;3.10;;
69979;SDS011;57318;56.232;43.944;2024-01-11T14:09:03;8.05;;;2.58;;
69979;SDS011;57318;56.232;43.944;2024-01-11T14:11:32;2.97;;;2.35;;
69979;SDS011;57318;56.232;43.944;2024-01-11T14:13:58;6.00;;;2.38;;
69979;SDS011;57318;56.232;43.944;2024-01-11T14:16:24;6.60;;;2.67;;
69979;SDS011;57318;56.232;43.944;2024-01-11T14:18:52;6.95;;;2.63;;
69979;SDS011;57318;56.232;43.944;2024-01-11T14:21:18;4.03;;;1.38;;
69979;SDS011;57318;56.232;43.944;2024-01-11T14:23:46;2.65;;;1.50;;
69979;SDS011;57318;56.232;43.944;2024-01-11T14:26:12;5.63;;;2.53;;
69979;SDS011;57318;56.232;43.944;2024-01-11T14:28:37;4.63;;;2.47;;
69979;SDS011;57318;56.232;43.944;2024-01-11T14:31:07;4.30;;;2.07;;
69979;SDS011;57318;56.232;43.944;2024-01-11T14:33:33;3.90;;;1.92;;
69979;SDS011;57318;56.232;43.944;2024-01-11T14:36:00;4.13;;;2.10;;
69979;SDS011;57318;56.232;43.944;2024-01-11T14:38:26;2.70;;;1.45;;
69979;SDS011;57318;56.232;43.944;2024-01-11T14:40:52;4.60;;;2.67;;
69979;SDS011;57318;56.232;43.944;2024-01-11T14:43:18;4.10;;;1.98;;
69979;SDS011;57318;56.232;43.944;2024-01-11T14:45:43;6.07;;;2.58;;
69979;SDS011;57318;56.232;43.944;2024-01-11T14:48:10;3.63;;;1.30;;
69979;SDS011;57318;56.232;43.944;2024-01-11T14:50:37;7.10;;;2.10;;
69979;SDS011;57318;56.232;43.944;2024-01-11T14:53:03;7.70;;;2.75;;
69979;SDS011;57318;56.232;43.944;2024-01-11T14:55:29;9.23;;;3.40;;
69979;SDS011;57318;56.232;43.944;2024-01-11T14:57:54;10.45;;;3.80;;
69979;SDS011;57318;56.232;43.944;2024-01-11T15:00:20;6.10;;;2.92;;
69979;SDS011;57318;56.232;43.944;2024-01-11T15:02:46;6.18;;;2.85;;
69979;SDS011;57318;56.232;43.944;2024-01-11T15:05:12;7.60;;;3.75;;
69979;SDS011;57318;56.232;43.944;2024-01-11T15:07:37;6.72;;;4.00;;
69979;SDS011;57318;56.232;43.944;2024-01-11T15:10:03;3.53;;;2.08;;
69979;SDS011;57318;56.232;43.944;2024-01-11T15:12:29;7.35;;;3.13;;
69979;SDS011;57318;56.232;43.944;2024-01-11T15:14:55;6.68;;;2.88;;
69979;SDS011;57318;56.232;43.944;2024-01-11T15:17:21;4.28;;;1.95;;